Time;durP1;ratioP1;P1;durP2;ratioP2;P2;SDS_P1;SDS_P2;PMS_P1;PMS_P2;Temp;Humidity;BMP_temperature;BMP_pressure;BME280_temperature;BME280_humidity;BME280_pressure;Samples;Min_cycle;Max_cycle;Signal;HPM_P1;HPM_P2
2023/04/12 00:01:19;;;;;;;1.50;1.50;;;;;;;;;;5027412;28;20192;-58
2023/04/12 00:03:49;;;;;;;1.60;1.60;;;;;;;;;;5026286;28;20275;-60
2023/04/12 00:06:16;;;;;;;1.83;1.73;;;;;;;;;;5026096;28;20231;-57
2023/04/12 00:08:45;;;;;;;2.20;2.10;;;;;;;;;;5026710;28;20201;-56
2023/04/12 00:11:11;;;;;;;1.20;1.20;;;;;;;;;;5025733;28;20688;-56
2023/04/12 00:13:37;;;;;;;1.00;1.00;;;;;;;;;;5033868;28;20252;-57
2023/04/12 00:16:03;;;;;;;1.40;1.40;;;;;;;;;;5046472;28;20218;-56
2023/04/12 00:18:29;;;;;;;1.30;1.30;;;;;;;;;;5048045;28;20193;-56
2023/04/12 00:20:55;;;;;;;1.33;1.33;;;;;;;;;;5039496;28;20707;-56
2023/04/12 00:23:21;;;;;;;1.50;1.50;;;;;;;;;;5045625;28;20189;-57
2023/04/12 00:25:47;;;;;;;1.50;1.50;;;;;;;;;;5044216;28;20195;-56
2023/04/12 00:28:14;;;;;;;1.60;1.60;;;;;;;;;;5044619;28;20195;-56
2023/04/12 00:30:40;;;;;;;1.40;1.40;;;;;;;;;;5045248;28;20188;-57
2023/04/12 00:33:06;;;;;;;1.40;1.40;;;;;;;;;;5045427;28;20196;-57
2023/04/12 00:35:32;;;;;;;1.50;1.50;;;;;;;;;;5045831;28;20266;-57
2023/04/12 00:37:58;;;;;;;1.30;1.30;;;;;;;;;;5045519;28;20750;-57
2023/04/12 00:40:24;;;;;;;1.60;1.60;;;;;;;;;;5045195;28;20673;-57
2023/04/12 00:42:50;;;;;;;1.30;1.30;;;;;;;;;;5037686;28;20790;-57
2023/04/12 00:45:16;;;;;;;1.60;1.60;;;;;;;;;;5040872;28;20196;-57
2023/04/12 00:47:42;;;;;;;1.30;1.30;;;;;;;;;;5042516;28;20212;-56
2023/04/12 00:50:09;;;;;;;1.30;1.30;;;;;;;;;;5046999;28;20200;-56
2023/04/12 00:52:36;;;;;;;1.30;1.30;;;;;;;;;;5046272;28;20727;-56
2023/04/12 00:55:06;;;;;;;1.10;1.10;;;;;;;;;;5047928;28;20303;-64
2023/04/12 00:57:34;;;;;;;0.90;0.90;;;;;;;;;;5046554;28;20570;-57
2023/04/12 01:00:00;;;;;;;1.00;1.00;;;;;;;;;;5036859;28;20201;-56
2023/04/12 01:02:26;;;;;;;0.90;0.90;;;;;;;;;;5045047;28;20188;-56
2023/04/12 01:04:52;;;;;;;0.90;0.90;;;;;;;;;;5040655;28;20246;-56
2023/04/12 01:07:25;;;;;;;0.90;0.90;;;;;;;;;;5044138;28;20200;-57
2023/04/12 01:10:00;;;;;;;1.10;1.10;;;;;;;;;;5045471;28;20200;-56
2023/04/12 01:12:32;;;;;;;1.10;1.10;;;;;;;;;;5042325;28;20259;-57
2023/04/12 01:15:00;;;;;;;1.10;1.10;;;;;;;;;;5046269;28;20227;-56
2023/04/12 01:17:28;;;;;;;1.30;1.30;;;;;;;;;;5028129;28;20613;-56
2023/04/12 01:19:56;;;;;;;1.60;1.60;;;;;;;;;;5045028;28;20185;-57
2023/04/12 01:22:25;;;;;;;1.50;1.50;;;;;;;;;;5044319;28;20188;-57
2023/04/12 01:25:10;;;;;;;1.50;1.50;;;;;;;;;;5048569;28;20196;-57
2023/04/12 01:27:42;;;;;;;2.00;1.90;;;;;;;;;;5047432;28;20222;-56
2023/04/12 01:30:08;;;;;;;1.90;1.80;;;;;;;;;;5046156;28;20218;-57
2023/04/12 01:32:34;;;;;;;1.70;1.70;;;;;;;;;;5045712;28;20200;-56
2023/04/12 01:35:01;;;;;;;1.90;1.80;;;;;;;;;;5040234;28;20305;-56
2023/04/12 01:37:27;;;;;;;1.83;1.73;;;;;;;;;;5043324;28;20203;-58
2023/04/12 01:39:53;;;;;;;2.10;2.00;;;;;;;;;;5047399;28;20188;-57
2023/04/12 01:42:19;;;;;;;2.30;2.20;;;;;;;;;;5041212;28;20733;-59
2023/04/12 01:44:46;;;;;;;1.70;1.70;;;;;;;;;;5044761;28;20718;-57
2023/04/12 01:47:12;;;;;;;2.20;2.10;;;;;;;;;;5043413;28;20569;-60
2023/04/12 01:49:49;;;;;;;2.17;2.07;;;;;;;;;;5045352;28;20188;-57
2023/04/12 01:52:18;;;;;;;1.83;1.73;;;;;;;;;;5042774;28;20371;-56
2023/04/12 01:54:44;;;;;;;1.90;1.80;;;;;;;;;;5041877;28;20226;-56
2023/04/12 01:57:10;;;;;;;1.50;1.50;;;;;;;;;;5044032;28;20184;-56
2023/04/12 01:59:40;;;;;;;1.70;1.70;;;;;;;;;;5044278;28;20733;-56
2023/04/12 02:02:07;;;;;;;1.80;1.70;;;;;;;;;;5044971;28;20180;-56
2023/04/12 02:04:33;;;;;;;1.30;1.30;;;;;;;;;;5043739;28;20314;-56
2023/04/12 02:06:59;;;;;;;1.60;1.60;;;;;;;;;;5040129;28;20198;-56
2023/04/12 02:09:26;;;;;;;1.50;1.50;;;;;;;;;;5044646;28;20785;-55
2023/04/12 02:11:52;;;;;;;1.30;1.30;;;;;;;;;;5039649;28;20200;-55
2023/04/12 02:14:18;;;;;;;1.50;1.50;;;;;;;;;;5029970;28;20251;-56
2023/04/12 02:16:45;;;;;;;1.60;1.60;;;;;;;;;;5022130;28;20215;-56
2023/04/12 02:19:11;;;;;;;1.50;1.50;;;;;;;;;;5025597;28;20231;-56
2023/04/12 02:21:41;;;;;;;1.87;1.77;;;;;;;;;;5024429;28;20178;-56
2023/04/12 02:24:07;;;;;;;2.00;1.90;;;;;;;;;;5022564;28;20189;-56
2023/04/12 02:26:33;;;;;;;1.90;1.80;;;;;;;;;;5023231;28;20188;-56
2023/04/12 02:28:59;;;;;;;1.60;1.60;;;;;;;;;;5021986;28;20556;-57
2023/04/12 02:31:26;;;;;;;1.70;1.70;;;;;;;;;;5024828;28;20192;-56
2023/04/12 02:33:52;;;;;;;1.90;1.80;;;;;;;;;;5023357;28;20255;-56
2023/04/12 02:36:18;;;;;;;1.80;1.70;;;;;;;;;;5022503;28;20284;-56
2023/04/12 02:38:44;;;;;;;1.40;1.40;;;;;;;;;;5024616;28;20788;-56
2023/04/12 02:41:16;;;;;;;1.50;1.50;;;;;;;;;;5021889;28;20188;-56
2023/04/12 02:43:42;;;;;;;1.80;1.70;;;;;;;;;;5023812;28;20189;-56
2023/04/12 02:46:08;;;;;;;1.50;1.50;;;;;;;;;;5021128;28;20235;-56
2023/04/12 02:48:34;;;;;;;1.80;1.70;;;;;;;;;;5028510;28;20196;-56
2023/04/12 02:51:00;;;;;;;1.90;1.80;;;;;;;;;;5020280;28;20193;-56
2023/04/12 02:53:25;;;;;;;2.30;2.20;;;;;;;;;;5025545;28;20186;-56
2023/04/12 02:55:51;;;;;;;2.50;2.40;;;;;;;;;;5023952;28;20208;-56
2023/04/12 02:58:17;;;;;;;2.70;2.60;;;;;;;;;;5024037;28;20197;-56
2023/04/12 03:00:45;;;;;;;2.40;2.30;;;;;;;;;;5023488;28;20197;-56
2023/04/12 03:03:11;;;;;;;2.20;2.10;;;;;;;;;;5023476;28;20177;-56
2023/04/12 03:05:38;;;;;;;1.90;1.80;;;;;;;;;;5023735;28;20272;-56
2023/04/12 03:08:04;;;;;;;1.80;1.70;;;;;;;;;;5024586;28;20193;-56
2023/04/12 03:10:30;;;;;;;1.30;1.30;;;;;;;;;;5023819;28;20333;-56
2023/04/12 03:12:56;;;;;;;1.00;1.00;;;;;;;;;;5024276;28;20768;-56
2023/04/12 03:15:22;;;;;;;1.40;1.40;;;;;;;;;;5024502;28;20219;-56
2023/04/12 03:17:48;;;;;;;1.47;1.47;;;;;;;;;;5027784;28;20649;-56
2023/04/12 03:20:16;;;;;;;1.30;1.30;;;;;;;;;;5027106;28;20181;-56
2023/04/12 03:22:41;;;;;;;1.30;1.30;;;;;;;;;;5027996;28;20169;-57
2023/04/12 03:25:08;;;;;;;1.70;1.70;;;;;;;;;;5026684;28;20199;-56
2023/04/12 03:27:34;;;;;;;2.30;2.20;;;;;;;;;;5028947;28;20193;-56
2023/04/12 03:30:00;;;;;;;1.90;1.80;;;;;;;;;;5025676;28;20237;-56
2023/04/12 03:32:26;;;;;;;2.10;2.00;;;;;;;;;;5024958;28;20217;-56
2023/04/12 03:34:52;;;;;;;2.10;2.00;;;;;;;;;;5026165;28;20216;-55
2023/04/12 03:37:18;;;;;;;1.97;1.87;;;;;;;;;;5025348;28;20672;-56
2023/04/12 03:39:46;;;;;;;2.30;2.20;;;;;;;;;;5026738;28;20661;-56
2023/04/12 03:42:12;;;;;;;2.00;1.90;;;;;;;;;;5027028;28;20181;-56
2023/04/12 03:44:38;;;;;;;2.20;2.10;;;;;;;;;;5027857;28;20200;-56
2023/04/12 03:47:04;;;;;;;2.27;2.17;;;;;;;;;;5025275;28;20216;-56
2023/04/12 03:49:31;;;;;;;1.90;1.80;;;;;;;;;;5027692;28;20189;-56
2023/04/12 03:51:57;;;;;;;2.10;2.00;;;;;;;;;;5027378;28;20197;-56
2023/04/12 03:54:23;;;;;;;2.00;1.90;;;;;;;;;;5013758;28;20235;-56
2023/04/12 03:56:49;;;;;;;2.23;2.13;;;;;;;;;;5024806;28;20189;-56
2023/04/12 03:59:15;;;;;;;2.20;2.10;;;;;;;;;;5027514;28;20181;-56
2023/04/12 04:01:42;;;;;;;2.70;2.60;;;;;;;;;;5024530;28;20701;-56
2023/04/12 04:04:08;;;;;;;2.50;2.40;;;;;;;;;;5026951;28;20196;-56
2023/04/12 04:06:34;;;;;;;2.77;2.67;;;;;;;;;;5027119;28;20193;-56
2023/04/12 04:09:00;;;;;;;2.60;2.50;;;;;;;;;;5030149;28;20196;-56
2023/04/12 04:11:26;;;;;;;2.93;2.83;;;;;;;;;;5028576;28;20275;-56
2023/04/12 04:13:52;;;;;;;2.60;2.50;;;;;;;;;;5022321;28;20376;-56
2023/04/12 04:16:18;;;;;;;2.40;2.30;;;;;;;;;;5021300;28;20768;-56
2023/04/12 04:18:44;;;;;;;2.30;2.20;;;;;;;;;;5026863;28;20620;-56
2023/04/12 04:21:10;;;;;;;2.30;2.20;;;;;;;;;;5023898;28;20215;-56
2023/04/12 04:23:38;;;;;;;2.20;2.10;;;;;;;;;;5023044;28;20193;-56
2023/04/12 04:26:08;;;;;;;2.30;2.20;;;;;;;;;;5027741;28;20181;-56
2023/04/12 04:28:36;;;;;;;1.90;1.80;;;;;;;;;;5027677;28;20193;-56
2023/04/12 04:31:05;;;;;;;2.10;2.00;;;;;;;;;;5025831;28;20234;-56
2023/04/12 04:33:31;;;;;;;2.00;1.90;;;;;;;;;;5025635;28;20663;-56
2023/04/12 04:35:57;;;;;;;2.17;2.07;;;;;;;;;;5026479;28;20638;-56
2023/04/12 04:38:25;;;;;;;1.90;1.80;;;;;;;;;;5026244;28;20234;-56
2023/04/12 04:40:54;;;;;;;1.90;1.80;;;;;;;;;;5026453;28;20222;-56
2023/04/12 04:43:21;;;;;;;2.13;2.03;;;;;;;;;;5024162;28;20193;-56
2023/04/12 04:45:48;;;;;;;2.20;2.10;;;;;;;;;;5022964;28;20204;-56
2023/04/12 04:48:15;;;;;;;2.00;1.90;;;;;;;;;;5003143;28;20189;-57
2023/04/12 04:50:41;;;;;;;2.00;1.90;;;;;;;;;;5022931;28;20558;-56
2023/04/12 04:53:07;;;;;;;2.10;2.00;;;;;;;;;;5027706;28;20185;-56
2023/04/12 04:55:33;;;;;;;1.93;1.83;;;;;;;;;;5025250;28;20669;-56
2023/04/12 04:57:59;;;;;;;2.10;2.00;;;;;;;;;;5025125;28;20260;-56
2023/04/12 05:00:24;;;;;;;1.90;1.80;;;;;;;;;;5023515;28;20193;-56
2023/04/12 05:02:50;;;;;;;2.10;2.00;;;;;;;;;;5024975;28;20201;-56
2023/04/12 05:05:17;;;;;;;2.20;2.10;;;;;;;;;;5024681;28;20189;-56
2023/04/12 05:07:43;;;;;;;2.10;2.00;;;;;;;;;;5025489;28;20189;-56
2023/04/12 05:10:09;;;;;;;2.10;2.00;;;;;;;;;;5024296;28;20251;-56
2023/04/12 05:12:36;;;;;;;2.60;2.50;;;;;;;;;;5019414;28;20262;-56
2023/04/12 05:15:02;;;;;;;2.20;2.10;;;;;;;;;;5042351;28;20235;-56
2023/04/12 05:17:28;;;;;;;2.10;2.00;;;;;;;;;;5038770;28;20184;-56
2023/04/12 05:19:54;;;;;;;2.00;1.90;;;;;;;;;;5046350;28;20192;-56
2023/04/12 05:22:20;;;;;;;2.10;2.00;;;;;;;;;;5041437;28;20191;-56
2023/04/12 05:24:50;;;;;;;2.00;1.90;;;;;;;;;;5045259;28;20223;-56
2023/04/12 05:27:16;;;;;;;2.13;2.03;;;;;;;;;;5044447;28;20196;-56
2023/04/12 05:29:46;;;;;;;2.13;2.03;;;;;;;;;;5042118;28;20234;-55
2023/04/12 05:32:11;;;;;;;1.90;1.80;;;;;;;;;;5044124;28;20276;-56
2023/04/12 05:34:37;;;;;;;2.03;1.93;;;;;;;;;;5044635;28;20219;-56
2023/04/12 05:37:04;;;;;;;2.10;2.00;;;;;;;;;;5044397;28;20617;-56
2023/04/12 05:39:30;;;;;;;2.20;2.10;;;;;;;;;;5040799;28;20991;-56
2023/04/12 05:41:56;;;;;;;2.10;2.00;;;;;;;;;;5042993;28;20191;-55
2023/04/12 05:44:22;;;;;;;1.80;1.70;;;;;;;;;;5041863;28;20195;-56
2023/04/12 05:46:48;;;;;;;1.97;1.87;;;;;;;;;;5040572;28;20390;-55
2023/04/12 05:49:14;;;;;;;1.70;1.70;;;;;;;;;;5044442;28;20279;-56
2023/04/12 05:51:40;;;;;;;1.80;1.70;;;;;;;;;;5044565;28;20180;-55
2023/04/12 05:54:06;;;;;;;1.80;1.70;;;;;;;;;;5044897;28;20211;-56
2023/04/12 05:56:32;;;;;;;1.60;1.60;;;;;;;;;;5051268;28;20638;-56
2023/04/12 05:59:01;;;;;;;1.60;1.60;;;;;;;;;;5040468;28;20249;-56
2023/04/12 06:01:30;;;;;;;2.00;1.90;;;;;;;;;;5042908;28;20195;-56
2023/04/12 06:03:56;;;;;;;1.60;1.60;;;;;;;;;;5036152;28;20196;-56
2023/04/12 06:06:22;;;;;;;2.00;1.90;;;;;;;;;;5042755;28;20200;-55
2023/04/12 06:08:47;;;;;;;1.90;1.80;;;;;;;;;;5044286;28;20191;-55
2023/04/12 06:11:15;;;;;;;2.00;1.90;;;;;;;;;;5042682;28;20199;-55
2023/04/12 06:13:41;;;;;;;2.00;1.90;;;;;;;;;;5037959;28;20267;-56
2023/04/12 06:16:07;;;;;;;1.90;1.80;;;;;;;;;;5021522;28;20189;-56
2023/04/12 06:18:33;;;;;;;1.90;1.80;;;;;;;;;;5020754;28;20194;-56
2023/04/12 06:20:59;;;;;;;1.60;1.60;;;;;;;;;;5019260;28;20197;-55
2023/04/12 06:23:25;;;;;;;1.60;1.60;;;;;;;;;;5024016;28;20185;-55
2023/04/12 06:25:52;;;;;;;1.60;1.60;;;;;;;;;;5023882;28;20212;-56
2023/04/12 06:28:18;;;;;;;1.70;1.70;;;;;;;;;;5024047;28;20196;-56
2023/04/12 06:30:44;;;;;;;1.30;1.30;;;;;;;;;;5025128;28;20324;-56
2023/04/12 06:33:10;;;;;;;1.30;1.30;;;;;;;;;;5018620;28;20197;-56
2023/04/12 06:35:36;;;;;;;1.60;1.60;;;;;;;;;;5021911;28;20216;-55
2023/04/12 06:38:02;;;;;;;1.60;1.60;;;;;;;;;;5021258;28;20283;-56
2023/04/12 06:40:28;;;;;;;1.50;1.50;;;;;;;;;;5025311;28;20189;-56
2023/04/12 06:42:54;;;;;;;1.50;1.50;;;;;;;;;;5024150;28;20627;-56
2023/04/12 06:45:20;;;;;;;1.50;1.50;;;;;;;;;;5022520;28;20634;-56
2023/04/12 06:47:46;;;;;;;1.50;1.50;;;;;;;;;;5022519;28;20201;-56
2023/04/12 06:50:12;;;;;;;1.40;1.40;;;;;;;;;;5023072;28;20663;-56
2023/04/12 06:52:38;;;;;;;1.50;1.50;;;;;;;;;;5027407;28;20276;-56
2023/04/12 06:55:04;;;;;;;1.50;1.50;;;;;;;;;;5027931;28;20219;-56
2023/04/12 06:57:30;;;;;;;1.83;1.73;;;;;;;;;;5028320;28;20185;-56
2023/04/12 06:59:56;;;;;;;1.50;1.50;;;;;;;;;;5024965;28;20215;-56
2023/04/12 07:02:22;;;;;;;1.50;1.50;;;;;;;;;;4997820;28;20181;-56
2023/04/12 07:04:52;;;;;;;1.60;1.60;;;;;;;;;;5030349;28;20654;-56
2023/04/12 07:07:19;;;;;;;1.50;1.50;;;;;;;;;;5025862;28;20193;-56
2023/04/12 07:09:46;;;;;;;1.67;1.67;;;;;;;;;;5028132;28;20200;-56
2023/04/12 07:12:12;;;;;;;1.50;1.50;;;;;;;;;;5025879;28;20197;-56
2023/04/12 07:14:38;;;;;;;1.80;1.70;;;;;;;;;;5025659;28;20275;-56
2023/04/12 07:17:05;;;;;;;1.80;1.70;;;;;;;;;;5031235;28;20294;-56
2023/04/12 07:19:31;;;;;;;1.60;1.60;;;;;;;;;;5025418;28;20555;-56
2023/04/12 07:21:57;;;;;;;1.87;1.77;;;;;;;;;;5025006;28;20189;-57
2023/04/12 07:24:23;;;;;;;1.40;1.40;;;;;;;;;;5026746;28;20648;-56
2023/04/12 07:26:49;;;;;;;1.33;1.33;;;;;;;;;;5028205;28;20283;-57
2023/04/12 07:29:16;;;;;;;1.60;1.60;;;;;;;;;;5026666;28;20269;-56
2023/04/12 07:31:42;;;;;;;1.40;1.40;;;;;;;;;;5026422;28;20304;-56
2023/04/12 07:34:08;;;;;;;1.60;1.60;;;;;;;;;;5027149;28;20295;-56
2023/04/12 07:36:34;;;;;;;1.90;1.80;;;;;;;;;;5026114;28;20181;-56
2023/04/12 07:39:00;;;;;;;1.43;1.43;;;;;;;;;;5024490;28;20590;-56
2023/04/12 07:41:26;;;;;;;1.50;1.50;;;;;;;;;;5025838;28;20185;-56
2023/04/12 07:43:52;;;;;;;1.20;1.20;;;;;;;;;;5028177;28;20189;-56
2023/04/12 07:46:18;;;;;;;1.30;1.30;;;;;;;;;;5028772;28;20185;-55
2023/04/12 07:48:43;;;;;;;1.53;1.53;;;;;;;;;;5025766;28;20200;-56
2023/04/12 07:51:09;;;;;;;1.20;1.20;;;;;;;;;;5020204;28;20201;-56
2023/04/12 07:53:35;;;;;;;1.20;1.20;;;;;;;;;;5025738;28;20193;-56
2023/04/12 07:56:04;;;;;;;1.50;1.50;;;;;;;;;;5024626;28;20231;-56
2023/04/12 07:58:30;;;;;;;1.40;1.40;;;;;;;;;;5025378;28;20201;-56
2023/04/12 08:00:56;;;;;;;1.40;1.40;;;;;;;;;;5024274;28;20717;-56
2023/04/12 08:03:23;;;;;;;1.37;1.37;;;;;;;;;;5020736;28;20280;-56
2023/04/12 08:05:52;;;;;;;1.47;1.47;;;;;;;;;;5013336;28;20932;-56
2023/04/12 08:08:19;;;;;;;1.40;1.40;;;;;;;;;;5026988;28;20607;-56
2023/04/12 08:10:45;;;;;;;1.63;1.63;;;;;;;;;;5024708;28;20229;-56
2023/04/12 08:13:11;;;;;;;1.37;1.37;;;;;;;;;;5023688;28;20243;-56
2023/04/12 08:15:37;;;;;;;1.30;1.30;;;;;;;;;;5024064;28;20263;-56
2023/04/12 08:18:03;;;;;;;1.40;1.40;;;;;;;;;;5024343;28;20181;-56
2023/04/12 08:20:29;;;;;;;1.30;1.30;;;;;;;;;;5008049;28;20194;-56
2023/04/12 08:22:55;;;;;;;1.50;1.50;;;;;;;;;;5022118;28;20208;-56
2023/04/12 08:25:21;;;;;;;1.50;1.50;;;;;;;;;;5024370;28;20201;-56
2023/04/12 08:27:48;;;;;;;1.40;1.40;;;;;;;;;;5024930;28;20673;-56
2023/04/12 08:30:14;;;;;;;1.70;1.70;;;;;;;;;;5023281;28;20207;-56
2023/04/12 08:32:40;;;;;;;1.60;1.60;;;;;;;;;;5024937;28;20657;-56
2023/04/12 08:35:06;;;;;;;1.50;1.50;;;;;;;;;;5025718;28;20739;-56
2023/04/12 08:37:33;;;;;;;1.83;1.73;;;;;;;;;;5025430;28;20189;-56
2023/04/12 08:40:03;;;;;;;1.40;1.40;;;;;;;;;;5025247;28;20557;-57
2023/04/12 08:42:30;;;;;;;1.90;1.80;;;;;;;;;;5009304;28;20220;-56
2023/04/12 08:44:56;;;;;;;1.40;1.40;;;;;;;;;;5020663;28;20221;-57
2023/04/12 08:47:22;;;;;;;1.60;1.60;;;;;;;;;;5007141;28;20259;-56
2023/04/12 08:49:48;;;;;;;1.60;1.60;;;;;;;;;;5025196;28;20200;-56
2023/04/12 08:52:14;;;;;;;1.30;1.30;;;;;;;;;;5023347;28;20268;-57
2023/04/12 08:54:40;;;;;;;1.40;1.40;;;;;;;;;;5025138;28;20200;-56
2023/04/12 08:57:07;;;;;;;1.70;1.67;;;;;;;;;;5023020;28;20307;-56
2023/04/12 08:59:35;;;;;;;1.60;1.60;;;;;;;;;;5018085;28;20247;-57
2023/04/12 09:02:01;;;;;;;1.60;1.60;;;;;;;;;;5023065;28;20190;-57
2023/04/12 09:04:26;;;;;;;1.80;1.70;;;;;;;;;;5021949;28;20735;-57
2023/04/12 09:06:52;;;;;;;1.40;1.40;;;;;;;;;;5027138;28;20628;-56
2023/04/12 09:09:18;;;;;;;1.50;1.50;;;;;;;;;;5024243;28;20239;-56
2023/04/12 09:11:44;;;;;;;1.60;1.60;;;;;;;;;;5025007;28;20200;-56
2023/04/12 09:14:21;;;;;;;1.30;1.30;;;;;;;;;;5021581;28;20241;-56
2023/04/12 09:16:47;;;;;;;1.73;1.70;;;;;;;;;;5022413;28;20192;-56
2023/04/12 09:19:13;;;;;;;1.60;1.60;;;;;;;;;;5025232;28;20267;-56
2023/04/12 09:21:51;;;;;;;1.60;1.60;;;;;;;;;;5020385;28;20299;-56
2023/04/12 09:24:17;;;;;;;1.60;1.60;;;;;;;;;;5023401;28;20200;-56
2023/04/12 09:26:43;;;;;;;1.50;1.50;;;;;;;;;;5022402;28;20193;-56
2023/04/12 09:29:22;;;;;;;1.70;1.70;;;;;;;;;;5023116;28;20280;-56
2023/04/12 09:32:00;;;;;;;1.40;1.40;;;;;;;;;;5022711;28;20200;-56
2023/04/12 09:34:26;;;;;;;1.60;1.60;;;;;;;;;;5022722;28;20262;-56
2023/04/12 09:36:52;;;;;;;1.40;1.40;;;;;;;;;;5020931;28;20537;-56
2023/04/12 09:39:18;;;;;;;1.40;1.40;;;;;;;;;;5021656;28;20447;-56
2023/04/12 09:41:44;;;;;;;1.60;1.60;;;;;;;;;;5024132;28;20189;-56
2023/04/12 09:44:13;;;;;;;1.73;1.70;;;;;;;;;;5002324;28;20274;-56
2023/04/12 09:46:49;;;;;;;1.30;1.30;;;;;;;;;;5004588;28;20648;-56
2023/04/12 09:49:15;;;;;;;1.50;1.50;;;;;;;;;;5021509;28;20184;-56
2023/04/12 09:51:41;;;;;;;2.03;1.93;;;;;;;;;;5020933;28;20696;-55
2023/04/12 09:54:08;;;;;;;2.07;1.97;;;;;;;;;;5024070;28;20220;-56
2023/04/12 09:56:35;;;;;;;2.03;1.93;;;;;;;;;;5001566;28;20217;-55
2023/04/12 09:59:04;;;;;;;1.63;1.63;;;;;;;;;;4991443;28;20181;-55
2023/04/12 10:01:35;;;;;;;1.40;1.40;;;;;;;;;;5024591;28;20196;-56
2023/04/12 10:04:01;;;;;;;1.60;1.60;;;;;;;;;;5023430;28;20177;-55
2023/04/12 10:06:26;;;;;;;1.70;1.70;;;;;;;;;;5009745;28;20673;-55
2023/04/12 10:08:52;;;;;;;1.30;1.30;;;;;;;;;;5024542;28;20196;-55
2023/04/12 10:11:18;;;;;;;1.20;1.20;;;;;;;;;;5021449;28;20605;-56
2023/04/12 10:13:45;;;;;;;1.30;1.30;;;;;;;;;;5023866;28;20608;-55
2023/04/12 10:16:11;;;;;;;1.30;1.30;;;;;;;;;;5004636;28;20421;-56
2023/04/12 10:18:37;;;;;;;1.40;1.40;;;;;;;;;;4988610;28;20192;-56
2023/04/12 10:21:03;;;;;;;2.20;2.10;;;;;;;;;;5003370;28;20193;-56
2023/04/12 10:23:29;;;;;;;1.80;1.70;;;;;;;;;;5018946;28;20208;-56
2023/04/12 10:25:56;;;;;;;1.50;1.50;;;;;;;;;;5023139;28;20181;-56
2023/04/12 10:28:22;;;;;;;1.40;1.40;;;;;;;;;;5020694;28;20192;-56
2023/04/12 10:30:49;;;;;;;1.40;1.40;;;;;;;;;;5023689;28;20212;-56
2023/04/12 10:33:16;;;;;;;1.50;1.50;;;;;;;;;;5021522;28;20253;-56
2023/04/12 10:35:49;;;;;;;0.80;0.80;;;;;;;;;;5023123;28;20204;-56
2023/04/12 10:38:15;;;;;;;1.97;1.87;;;;;;;;;;5021716;28;20185;-56
2023/04/12 10:41:00;;;;;;;2.00;1.90;;;;;;;;;;5021927;28;20234;-57
2023/04/12 10:43:29;;;;;;;1.90;1.80;;;;;;;;;;5021583;28;20219;-56
2023/04/12 10:45:56;;;;;;;1.80;1.70;;;;;;;;;;5019652;28;20224;-56
2023/04/12 10:48:35;;;;;;;2.10;2.00;;;;;;;;;;5022477;28;20201;-56
2023/04/12 10:51:26;;;;;;;1.90;1.80;;;;;;;;;;5020899;28;20199;-56
2023/04/12 10:53:53;;;;;;;1.60;1.60;;;;;;;;;;5021895;28;20181;-56
2023/04/12 10:56:31;;;;;;;1.57;1.57;;;;;;;;;;5022548;28;20523;-56
2023/04/12 10:59:00;;;;;;;1.40;1.40;;;;;;;;;;5022313;28;20243;-56
2023/04/12 11:01:26;;;;;;;1.50;1.50;;;;;;;;;;5017546;28;20801;-56
2023/04/12 11:04:04;;;;;;;1.60;1.60;;;;;;;;;;5021758;28;20181;-56
2023/04/12 11:07:02;;;;;;;1.40;1.40;;;;;;;;;;5025020;28;20189;-56
2023/04/12 11:09:29;;;;;;;1.50;1.50;;;;;;;;;;5009090;28;20227;-57
2023/04/12 11:11:56;;;;;;;1.47;1.47;;;;;;;;;;5021943;28;20228;-56
2023/04/12 11:14:29;;;;;;;1.90;1.80;;;;;;;;;;5019413;28;20834;-56
2023/04/12 11:17:07;;;;;;;1.40;1.40;;;;;;;;;;5023330;28;20219;-56
2023/04/12 11:19:37;;;;;;;1.40;1.40;;;;;;;;;;5022359;28;20196;-56
2023/04/12 11:22:03;;;;;;;1.30;1.30;;;;;;;;;;5003003;28;20295;-56
2023/04/12 11:24:29;;;;;;;1.40;1.40;;;;;;;;;;5020684;28;20718;-56
2023/04/12 11:26:56;;;;;;;1.80;1.70;;;;;;;;;;5021194;28;20217;-56
2023/04/12 11:29:27;;;;;;;1.20;1.20;;;;;;;;;;5020846;28;20212;-57
2023/04/12 11:31:54;;;;;;;1.20;1.20;;;;;;;;;;5020971;28;20197;-56
2023/04/12 11:34:20;;;;;;;2.00;1.90;;;;;;;;;;5021391;28;20220;-57
2023/04/12 11:36:47;;;;;;;2.00;1.90;;;;;;;;;;5021562;28;20189;-56
2023/04/12 11:39:13;;;;;;;1.90;1.80;;;;;;;;;;5023705;28;20256;-57
2023/04/12 11:41:48;;;;;;;1.63;1.63;;;;;;;;;;5025327;28;20200;-56
2023/04/12 11:44:17;;;;;;;1.60;1.60;;;;;;;;;;5024461;28;20199;-54
2023/04/12 11:46:43;;;;;;;2.10;2.00;;;;;;;;;;5026317;28;20678;-57
2023/04/12 11:49:09;;;;;;;2.00;1.90;;;;;;;;;;5022802;28;20220;-56
2023/04/12 11:51:35;;;;;;;1.60;1.60;;;;;;;;;;5022553;28;20186;-56
2023/04/12 11:54:03;;;;;;;1.20;1.20;;;;;;;;;;5025346;28;20553;-56
2023/04/12 11:56:31;;;;;;;1.90;1.80;;;;;;;;;;5026667;28;20315;-56
2023/04/12 11:58:57;;;;;;;1.73;1.67;;;;;;;;;;5024909;28;20621;-56
2023/04/12 12:01:23;;;;;;;1.30;1.30;;;;;;;;;;5025758;28;20386;-57
2023/04/12 12:03:49;;;;;;;1.20;1.20;;;;;;;;;;5023944;28;20555;-56
2023/04/12 12:06:15;;;;;;;1.30;1.30;;;;;;;;;;4999579;28;20208;-56
2023/04/12 12:08:41;;;;;;;1.20;1.20;;;;;;;;;;5025985;28;20181;-57
2023/04/12 12:11:07;;;;;;;1.30;1.30;;;;;;;;;;5010856;28;20196;-56
2023/04/12 12:13:46;;;;;;;1.30;1.30;;;;;;;;;;5031115;28;20220;-56
2023/04/12 12:16:12;;;;;;;1.38;1.38;;;;;;;;;;5044598;28;20300;-56
2023/04/12 12:18:44;;;;;;;1.20;1.20;;;;;;;;;;5043504;28;20203;-56
2023/04/12 12:21:13;;;;;;;1.30;1.30;;;;;;;;;;5040199;28;20695;-56
2023/04/12 12:23:41;;;;;;;1.30;1.30;;;;;;;;;;5043409;28;20196;-56
2023/04/12 12:26:07;;;;;;;1.20;1.20;;;;;;;;;;5044757;28;20754;-56
2023/04/12 12:28:37;;;;;;;1.20;1.20;;;;;;;;;;5038578;28;20184;-56
2023/04/12 12:31:05;;;;;;;1.30;1.30;;;;;;;;;;5039629;28;20192;-56
2023/04/12 12:33:37;;;;;;;1.30;1.30;;;;;;;;;;5046278;28;20195;-56
2023/04/12 12:36:03;;;;;;;1.20;1.20;;;;;;;;;;5043601;28;20295;-56
2023/04/12 12:38:38;;;;;;;1.30;1.30;;;;;;;;;;5042049;28;20185;-56
2023/04/12 12:41:17;;;;;;;1.42;1.42;;;;;;;;;;5042415;28;20188;-56
2023/04/12 12:43:44;;;;;;;1.20;1.20;;;;;;;;;;5044712;28;20242;-56
2023/04/12 12:46:10;;;;;;;1.20;1.20;;;;;;;;;;5042429;28;20200;-56
2023/04/12 12:48:42;;;;;;;1.20;1.20;;;;;;;;;;5043194;28;20245;-55
2023/04/12 12:51:09;;;;;;;1.20;1.20;;;;;;;;;;5041622;28;20188;-56
2023/04/12 12:53:41;;;;;;;1.15;1.15;;;;;;;;;;5042531;28;20196;-56
2023/04/12 12:56:10;;;;;;;1.20;1.20;;;;;;;;;;5044477;28;20685;-56
2023/04/12 12:58:36;;;;;;;1.20;1.20;;;;;;;;;;5044144;28;20238;-55
2023/04/12 13:01:03;;;;;;;1.30;1.30;;;;;;;;;;5042793;28;20681;-56
2023/04/12 13:03:29;;;;;;;1.20;1.20;;;;;;;;;;5045145;28;20188;-56
2023/04/12 13:05:55;;;;;;;1.20;1.20;;;;;;;;;;5044982;28;20193;-55
2023/04/12 13:08:21;;;;;;;1.20;1.20;;;;;;;;;;5046963;28;20530;-56
2023/04/12 13:10:47;;;;;;;1.10;1.10;;;;;;;;;;5043836;28;20188;-57
2023/04/12 13:13:14;;;;;;;1.00;1.00;;;;;;;;;;5040164;28;20229;-57
2023/04/12 13:15:40;;;;;;;1.00;1.00;;;;;;;;;;5015129;28;20216;-56
2023/04/12 13:18:06;;;;;;;1.00;1.00;;;;;;;;;;5024567;28;20216;-56
2023/04/12 13:20:32;;;;;;;1.00;1.00;;;;;;;;;;5020336;28;20177;-56
2023/04/12 13:22:58;;;;;;;1.00;1.00;;;;;;;;;;5022547;28;20617;-56
2023/04/12 13:25:24;;;;;;;0.93;0.93;;;;;;;;;;5003015;28;20203;-56
2023/04/12 13:27:50;;;;;;;1.08;1.08;;;;;;;;;;5020598;28;20191;-56
2023/04/12 13:30:19;;;;;;;1.00;1.00;;;;;;;;;;5022226;28;20535;-56
2023/04/12 13:32:45;;;;;;;1.00;1.00;;;;;;;;;;5022399;28;20189;-56
2023/04/12 13:35:11;;;;;;;1.00;1.00;;;;;;;;;;5023320;28;20267;-56
2023/04/12 13:37:37;;;;;;;1.10;1.10;;;;;;;;;;5024039;28;20216;-56
2023/04/12 13:40:03;;;;;;;1.00;1.00;;;;;;;;;;5023934;28;20216;-56
2023/04/12 13:42:29;;;;;;;1.00;1.00;;;;;;;;;;5005468;28;20755;-56
2023/04/12 13:44:55;;;;;;;1.10;1.10;;;;;;;;;;5022260;28;20181;-56
2023/04/12 13:47:21;;;;;;;1.10;1.10;;;;;;;;;;5023681;28;20724;-56
2023/04/12 13:49:47;;;;;;;1.00;1.00;;;;;;;;;;5021502;28;20201;-56
2023/04/12 13:52:13;;;;;;;1.00;1.00;;;;;;;;;;5021569;28;20207;-57
2023/04/12 13:54:40;;;;;;;1.00;1.00;;;;;;;;;;5022559;28;20209;-57
2023/04/12 13:57:06;;;;;;;1.00;1.00;;;;;;;;;;5024719;28;20191;-56
2023/04/12 13:59:32;;;;;;;1.00;1.00;;;;;;;;;;5022187;28;20181;-57
2023/04/12 14:01:59;;;;;;;1.00;1.00;;;;;;;;;;5021850;28;20181;-57
2023/04/12 14:04:27;;;;;;;1.10;1.10;;;;;;;;;;5025220;28;20279;-56
2023/04/12 14:06:52;;;;;;;1.10;1.10;;;;;;;;;;5016505;28;20650;-57
2023/04/12 14:09:26;;;;;;;1.10;1.10;;;;;;;;;;5024772;28;20227;-56
2023/04/12 14:11:54;;;;;;;1.10;1.10;;;;;;;;;;5019524;28;20189;-56
2023/04/12 14:14:20;;;;;;;1.10;1.10;;;;;;;;;;5019906;28;20232;-56
2023/04/12 14:16:46;;;;;;;1.40;1.40;;;;;;;;;;5021647;28;20587;-56
2023/04/12 14:19:12;;;;;;;1.10;1.10;;;;;;;;;;5024007;28;20315;-56
2023/04/12 14:21:38;;;;;;;1.20;1.20;;;;;;;;;;5021919;28;20179;-56
2023/04/12 14:24:04;;;;;;;1.10;1.10;;;;;;;;;;5023073;28;20193;-56
2023/04/12 14:26:30;;;;;;;1.20;1.20;;;;;;;;;;5022376;28;20185;-56
2023/04/12 14:28:56;;;;;;;1.30;1.30;;;;;;;;;;5006342;28;20729;-57
2023/04/12 14:31:22;;;;;;;1.10;1.10;;;;;;;;;;5021120;28;20267;-57
2023/04/12 14:33:48;;;;;;;1.10;1.10;;;;;;;;;;5021303;28;20216;-56
2023/04/12 14:36:14;;;;;;;1.10;1.10;;;;;;;;;;5019219;28;20233;-57
2023/04/12 14:38:40;;;;;;;1.10;1.10;;;;;;;;;;5024872;28;20185;-57
2023/04/12 14:41:07;;;;;;;1.10;1.10;;;;;;;;;;5021794;28;20199;-56
2023/04/12 14:43:33;;;;;;;1.10;1.10;;;;;;;;;;5016982;28;20213;-57